Musselfork, Missouri
Current Conditions -  °F | °C
As of 1:35 AM on Thursday 27 Nov 2014 (Local Time) from KMHL Reporting Station
Overcast Overcast  
Wind Chill: -5°   Ceiling: 1400
Heat Index:   Visibility: 10mi
Dew Point: -1°   Wind: 13mph
Humidity: 93%   Direction: 310°NW
Pressure: 30.39"   Gusts: NA
Location:  39.4953°N, 92.9281°W
Report Text: KMHL 270735Z AUTO 31011KT 10SM OVC014 00/M01 A3039 RMK AO2
Loading
Personal Weather Stations






























Interactive Weather Map New forecast layout! Learn more

10-Day Weather Forecast

Advertisements
Track Severe Weather on mobile